Happy Valentine's Day! 

Flight Track Log - Related Links

Times and Time Zones

All times are in EDT time to prevent confusion due to time zone crossing. See the DAL5298 flight status page for this flight to view local times or setup timezone preferences in your user account.


Time Position Orientation Groundspeed Altitude Reporting Facility
EDT Latitude Longitude Course Direction KTS MPH feet Rate Location/Type
Fri 05:56:48 PM 40.7833 -73.8833 333° Northwest 144 166 1,100  Level New York TRACON
Fri 05:57:49 PM 40.8333 -73.9167 333° Northwest 191 220 3,100 2,000 Climbing New York TRACON
Fri 05:58:54 PM 40.8833 -73.9667 323° Northwest 239 275 5,300 2,500 Climbing New York TRACON
Fri 05:59:49 PM 40.9167 -74.0500 298° West 242 278 8,100 2,850 Climbing New York TRACON
Fri 06:00:54 PM 40.9167 -74.1500 270° West 255 293 11,000 2,550 Climbing New York TRACON
Fri 06:01:49 PM 40.9167 -74.2333 270° West 256 295 13,200 2,450 Climbing New York TRACON
Fri 06:02:54 PM 40.9167 -74.3333 270° West 261 300 15,900 1,708 Climbing New York TRACON
Fri 06:04:06 PM 40.9192 -74.4425 272° West 277 319 17,100 545 Climbing New York Center
Fri 06:05:06 PM 40.9192 -74.5717 270° West 309 356 17,100  Level New York Center
Fri 06:06:06 PM 40.9194 -74.6897 270° West 348 400 17,100  Level New York Center
Fri 06:07:06 PM 40.9186 -74.8353 270° West 361 415 17,100  Level New York Center
Fri 06:08:06 PM 40.9181 -74.9725 270° West 366 421 17,100 950 Level New York Center
Fri 06:09:06 PM 40.9181 -75.0906 270° West 366 421 19,000 1,900 Climbing New York Center
Fri 06:10:06 PM 40.9072 -75.2161 264° West 360 414 20,900 1,800 Climbing New York Center
Fri 06:11:06 PM 40.8769 -75.3514 254° West 355 409 22,600 1,350 Climbing New York Center
Fri 06:12:06 PM 40.8492 -75.4731 253° West 355 409 23,600 1,000 Climbing New York Center
Fri 06:13:06 PM 40.8192 -75.5969 252° West 355 409 24,600 1,000 Climbing New York Center
Fri 06:14:06 PM 40.7889 -75.7236 253° West 355 409 25,600 900 Climbing New York Center
Fri 06:15:06 PM 40.7636 -75.8342 253° West 355 409 26,400 900 Climbing New York Center
Fri 06:16:06 PM 40.7331 -75.9581 252° West 355 409 27,400 1,050 Climbing New York Center
Fri 06:17:06 PM 40.7108 -76.0850 257° West 355 409 28,500 1,050 Climbing New York Center
Fri 06:18:06 PM 40.7258 -76.2147 279° West 345 397 29,500 900 Climbing New York Center
Fri 06:19:06 PM 40.7408 -76.3394 279° West 345 397 30,300 800 Climbing New York Center
Fri 06:20:06 PM 40.7556 -76.4667 279° West 356 410 31,100 750 Climbing New York Center
Fri 06:21:06 PM 40.7722 -76.5942 280° West 356 410 31,800 700 Climbing New York Center
Fri 06:22:06 PM 40.7867 -76.7214 279° West 350 403 32,500 700 Climbing New York Center
Fri 06:23:06 PM 40.8014 -76.8461 279° West 355 409 33,200 700 Climbing New York Center
Fri 06:24:06 PM 40.8156 -76.9736 278° West 355 409 33,900 700 Climbing New York Center
Fri 06:25:06 PM 40.8297 -77.0983 279° West 355 409 34,600 700 Climbing New York Center
Fri 06:26:06 PM 40.8422 -77.2175 278° West 350 403 35,300 696 Climbing New York Center
Fri 06:28:33 PM 40.8761 -77.5033 279° West 328 377 37,000 632 Climbing Cleveland Center
Fri 06:29:35 PM 40.8886 -77.6208 278° West 326 375 37,500 484 Climbing Cleveland Center
Fri 06:30:37 PM 40.9033 -77.7594 278° West 321 369 38,000 242 Climbing Cleveland Center
Fri 06:31:39 PM 40.9158 -77.8769 278° West 325 374 38,000  Level Cleveland Center
Fri 06:32:41 PM 40.9283 -77.9983 278° West 334 384 38,000  Level Cleveland Center
Fri 06:33:43 PM 40.9411 -78.1236 278° West 344 396 38,000  Level Cleveland Center
Fri 06:34:45 PM 40.9561 -78.2628 278° West 356 410 38,000  Level Cleveland Center
Fri 06:35:47 PM 40.9675 -78.3908 277° West 355 409 38,000  Level Cleveland Center
Fri 06:36:49 PM 40.9839 -78.5269 279° West 371 427 38,000  Level Cleveland Center
Fri 06:37:51 PM 40.9969 -78.6608 277° West 376 433 38,000  Level Cleveland Center
Fri 06:38:54 PM 41.0103 -78.8200 276° West 374 430 38,000  Level Cleveland Center
Fri 06:39:56 PM 41.0228 -78.9581 277° West 381 438 38,000  Level Cleveland Center
Fri 06:40:58 PM 41.0328 -79.0914 276° West 369 425 38,000  Level Cleveland Center
Fri 06:42:00 PM 41.0464 -79.2256 278° West 369 425 38,000  Level Cleveland Center
Fri 06:43:02 PM 41.0578 -79.3594 276° West 368 423 38,000  Level Cleveland Center
Fri 06:44:04 PM 41.0733 -79.5197 277° West 368 423 38,000  Level Cleveland Center
Fri 06:45:06 PM 41.0853 -79.6522 277° West 366 421 38,000  Level Cleveland Center
Fri 06:46:08 PM 41.0969 -79.7861 277° West 367 422 38,000  Level Cleveland Center
Fri 06:47:10 PM 41.1083 -79.9211 276° West 370 426 38,000  Level Cleveland Center
Fri 06:48:12 PM 41.1200 -80.0583 276° West 376 433 38,000  Level Cleveland Center
Fri 06:49:14 PM 41.1347 -80.2233 277° West 378 435 38,000  Level Cleveland Center
Fri 06:50:16 PM 41.1456 -80.3592 276° West 377 434 38,000  Level Cleveland Center
Fri 06:51:18 PM 41.1572 -80.4956 277° West 372 428 38,000  Level Cleveland Center
Fri 06:52:21 PM 41.1686 -80.6328 276° West 371 427 38,000  Level Cleveland Center
Fri 06:53:23 PM 41.1786 -80.7714 276° West 373 429 38,000  Level Cleveland Center
Fri 06:54:25 PM 41.1892 -80.9094 276° West 373 429 38,000  Level Cleveland Center
Fri 06:55:27 PM 41.2014 -81.0694 276° West 370 426 38,000  Level Cleveland Center
Fri 06:56:29 PM 41.2119 -81.2089 276° West 375 432 38,000  Level Cleveland Center
Fri 06:57:31 PM 41.2222 -81.3456 276° West 369 425 38,000  Level Cleveland Center
Fri 06:58:33 PM 41.2317 -81.4753 276° West 377 434 38,000  Level Cleveland Center
Fri 06:59:35 PM 41.2414 -81.6122 275° West 374 430 38,000  Level Cleveland Center
Fri 07:00:37 PM 41.2531 -81.7747 276° West 372 428 38,000  Level Cleveland Center
Fri 07:01:39 PM 41.2622 -81.9128 275° West 374 430 38,000  Level Cleveland Center
Fri 07:02:41 PM 41.2717 -82.0489 275° West 373 429 38,000  Level Cleveland Center
Fri 07:03:43 PM 41.2811 -82.1861 275° West 371 427 38,000  Level Cleveland Center
Fri 07:04:45 PM 41.2900 -82.3261 275° West 376 433 38,000  Level Cleveland Center
Fri 07:05:47 PM 41.2986 -82.4639 275° West 373 429 38,000  Level Cleveland Center
Fri 07:06:49 PM 41.3094 -82.6250 275° West 372 428 38,000  Level Cleveland Center
Fri 07:07:51 PM 41.3172 -82.7631 274° West 372 428 38,000  Level Cleveland Center
Fri 07:08:53 PM 41.3264 -82.9014 275° West 374 430 38,000  Level Cleveland Center
Fri 07:09:55 PM 41.3342 -83.0403 274° West 373 429 38,000  Level Cleveland Center
Fri 07:10:57 PM 41.3431 -83.1886 275° West 372 428 38,000  Level Cleveland Center
Fri 07:11:59 PM 41.3508 -83.3281 274° West 375 432 38,000  Level Cleveland Center
Fri 07:13:01 PM 41.3589 -83.4650 275° West 372 428 38,000  Level Cleveland Center
Fri 07:14:03 PM 41.3656 -83.6033 274° West 374 430 38,000  Level Cleveland Center
Fri 07:15:05 PM 41.3731 -83.7433 274° West 378 435 38,000  Level Cleveland Center
Fri 07:16:07 PM 41.3803 -83.8808 274° West 375 432 38,000  Level Cleveland Center
Fri 07:17:09 PM 41.3897 -84.0469 274° West 375 432 38,000  Level Cleveland Center
Fri 07:18:11 PM 41.3961 -84.1847 274° West 374 430 38,000  Level Cleveland Center
Fri 07:18:53 PM 41.4008 -84.2589 275° West 375 432 38,000  Level Chicago Center
Fri 07:19:55 PM 41.4086 -84.4261 274° West 377 434 38,000  Level Chicago Center
Fri 07:20:57 PM 41.4150 -84.5644 274° West 376 433 38,000  Level Chicago Center
Fri 07:21:59 PM 41.4208 -84.7039 273° West 378 435 38,000  Level Chicago Center
Fri 07:23:01 PM 41.4275 -84.8419 274° West 375 432 38,000  Level Chicago Center
Fri 07:24:03 PM 41.4328 -84.9819 273° West 376 433 38,000  Level Chicago Center
Fri 07:25:06 PM 41.4386 -85.1219 273° West 379 436 38,000  Level Chicago Center
Fri 07:26:08 PM 41.4450 -85.2925 273° West 380 437 38,000  Level Chicago Center
Fri 07:27:10 PM 41.4503 -85.4350 273° West 380 437 38,000  Level Chicago Center
Fri 07:28:12 PM 41.4558 -85.5778 273° West 380 437 38,000  Level Chicago Center
Fri 07:29:14 PM 41.4608 -85.7183 273° West 378 435 38,000  Level Chicago Center
Fri 07:30:16 PM 41.4656 -85.8603 273° West 380 437 38,000  Level Chicago Center
Fri 07:31:18 PM 41.4706 -86.0003 273° West 379 436 38,000  Level Chicago Center
Fri 07:32:20 PM 41.4750 -86.1411 272° West 379 436 38,000  Level Chicago Center
Fri 07:33:22 PM 41.4806 -86.3072 273° West 376 433 38,000  Level Chicago Center
Fri 07:34:24 PM 41.4842 -86.4481 272° West 379 436 38,000  Level Chicago Center
Fri 07:35:26 PM 41.4886 -86.5878 272° West 379 436 38,000  Level Chicago Center
Fri 07:36:29 PM 41.4922 -86.7239 272° West 378 435 38,000  Level Chicago Center
Fri 07:37:31 PM 41.4958 -86.8639 272° West 379 436 38,000  Level Chicago Center
Fri 07:38:33 PM 41.5014 -87.0308 273° West 377 434 38,000  Level Chicago Center
Fri 07:39:35 PM 41.5036 -87.1708 271° West 378 435 38,000  Level Chicago Center
Fri 07:40:37 PM 41.5067 -87.3092 272° West 373 429 38,000  Level Chicago Center
Fri 07:41:39 PM 41.5097 -87.4478 272° West 376 433 38,000  Level Chicago Center
Fri 07:42:41 PM 41.5128 -87.5875 272° West 378 435 38,000  Level Chicago Center
Fri 07:43:43 PM 41.5156 -87.7539 271° West 376 433 38,000  Level Chicago Center
Fri 07:44:45 PM 41.5175 -87.8914 271° West 377 434 38,000  Level Chicago Center
Fri 07:45:47 PM 41.5189 -88.0417 271° West 379 436 38,000  Level Chicago Center
Fri 07:46:49 PM 41.5225 -88.1625 272° West 377 434 38,000  Level Chicago Center
Fri 07:47:52 PM 41.5239 -88.3269 271° West 377 434 38,000  Level Chicago Center
Fri 07:48:54 PM 41.5256 -88.4669 271° West 381 438 38,000  Level Chicago Center
Fri 07:49:56 PM 41.5272 -88.6042 271° West 376 433 38,000  Level Chicago Center
Fri 07:50:58 PM 41.5283 -88.7433 271° West 377 434 38,000  Level Chicago Center
Fri 07:52:00 PM 41.5297 -88.9108 271° West 377 434 38,000  Level Chicago Center
Fri 07:53:02 PM 41.5300 -89.0503 270° West 378 435 38,000  Level Chicago Center
Fri 07:54:04 PM 41.5314 -89.1900 271° West 378 435 38,000  Level Chicago Center
Fri 07:55:06 PM 41.5331 -89.3342 271° West 387 445 38,000  Level Chicago Center
Fri 07:56:08 PM 41.5333 -89.4750 270° West 384 442 38,000  Level Chicago Center
Fri 07:57:10 PM 41.5344 -89.6150 271° West 380 437 38,000  Level Chicago Center
Fri 07:58:13 PM 41.5342 -89.7825 270° West 379 436 38,000  Level Chicago Center
Fri 07:59:15 PM 41.5333 -89.9228 270° West 380 437 38,000  Level Chicago Center
Fri 08:00:17 PM 41.5347 -90.0603 271° West 376 433 38,000  Level Chicago Center
Fri 08:01:19 PM 41.5336 -90.2014 269° West 380 437 38,000  Level Chicago Center
Fri 08:02:21 PM 41.5319 -90.3439 269° West 383 441 38,000  Level Chicago Center
Fri 08:03:23 PM 41.5314 -90.4814 270° West 374 430 38,000  Level Chicago Center
Fri 08:04:25 PM 41.5300 -90.6414 269° West 387 445 38,000  Level Chicago Center
Fri 08:05:27 PM 41.5289 -90.7800 269° West 380 437 38,000  Level Chicago Center
Fri 08:06:29 PM 41.5283 -90.9183 270° West 377 434 38,000  Level Chicago Center
Fri 08:07:31 PM 41.5511 -91.0897 280° West 393 452 38,000  Level Chicago Center
Fri 08:08:34 PM 41.5711 -91.2283 281° West 387 445 38,000  Level Chicago Center
Fri 08:09:36 PM 41.5917 -91.3700 281° West 389 448 38,000 -242 Level Chicago Center
Fri 08:10:38 PM 41.5967 -91.5117 273° West 389 448 37,500 -484 Descending Chicago Center
Fri 08:11:40 PM 41.5956 -91.6569 269° West 394 453 37,000 -484 Descending Chicago Center
Fri 08:12:42 PM 41.5939 -91.8367 269° West 405 466 36,500 -532 Descending Chicago Center
Fri 08:13:44 PM 41.5922 -91.9806 269° West 394 453 35,900 -532 Descending Chicago Center
Fri 08:14:46 PM 41.5903 -92.1203 269° West 383 441 35,400 -435 Descending Chicago Center
Fri 08:15:48 PM 41.5886 -92.2558 269° West 371 427 35,000 -484 Descending Chicago Center
Fri 08:16:50 PM 41.5864 -92.3964 269° West 378 435 34,400 -484 Descending Chicago Center
Fri 08:17:52 PM 41.5833 -92.5708 269° West 394 453 34,000 -194 Descending Chicago Center
Fri 08:18:54 PM 41.5806 -92.7175 269° West 397 457 34,000  Level Chicago Center
Fri 08:19:57 PM 41.5778 -92.8542 268° West 392 451 34,000  Level Chicago Center
Fri 08:20:59 PM 41.5758 -92.9983 269° West 392 451 34,000  Level Chicago Center
Fri 08:22:01 PM 41.5711 -93.1725 268° West 395 455 34,000  Level Chicago Center
Fri 08:23:03 PM 41.5678 -93.3181 268° West 398 458 34,000  Level Chicago Center
Fri 08:24:05 PM 41.5650 -93.4628 269° West 397 457 34,000  Level Chicago Center
Fri 08:25:07 PM 41.5614 -93.6089 268° West 398 458 34,000  Level Chicago Center
Fri 08:26:09 PM 41.5569 -93.7564 268° West 401 461 34,000  Level Chicago Center
Fri 08:27:11 PM 41.5517 -93.9319 268° West 400 460 34,000 -629 Level Chicago Center
Fri 08:28:13 PM 41.5475 -94.0828 268° West 409 471 32,700 -1,839 Descending Chicago Center
Fri 08:29:15 PM 41.5433 -94.2328 268° West 409 471 30,200 -2,419 Descending Chicago Center
Fri 08:30:17 PM 41.5378 -94.3731 267° West 392 451 27,700 -2,400 Descending Chicago Center
Fri 08:31:20 PM 41.5336 -94.5114 268° West 379 436 25,200 -2,622 Descending Chicago Center
Fri 08:32:32 PM 41.5244 -94.7128 267° West 389 448 21,800 -2,400 Descending Minneapolis Center
Fri 08:33:25 PM 41.5372 -94.8439 277° West 380 437 20,200 -1,839 Descending Minneapolis Center
Fri 08:33:34 PM 41.5228 -94.8539 207° Southwest 382 440 19,900 -2,093 Descending Minneapolis Center
Fri 08:34:08 PM 41.5317 -94.9392 278° West 372 428 18,700 -1,839 Descending Minneapolis Center
Fri 08:34:36 PM 41.5186 -94.9917 252° West 374 430 18,000 -1,900 Descending Minneapolis Center
Fri 08:35:08 PM 41.5242 -95.0908 274° West 380 437 16,800 -1,935 Descending Minneapolis Center
Fri 08:35:38 PM 41.5133 -95.1319 251° West 378 435 16,000 -2,066 Descending Minneapolis Center
Fri 08:36:09 PM 41.5067 -95.2267 265° West 374 430 14,700 -2,032 Descending Minneapolis Center
Fri 08:36:40 PM 41.4900 -95.2667 241° Southwest 372 428 13,900 -2,066 Descending Minneapolis Center
Fri 08:37:10 PM 41.4717 -95.3536 254° West 361 415 12,600 -1,935 Descending Minneapolis Center
Fri 08:37:42 PM 41.4417 -95.3800 213° Southwest 364 419 11,900 -1,562 Descending Minneapolis Center
Fri 08:38:23 PM 41.3994 -95.4572 234° Southwest 283 326 10,700 -1,452 Descending Minneapolis Center
Fri 08:38:44 PM 41.3864 -95.4628 198° South 325 374 10,400 -2,000 Descending Minneapolis Center
Fri 08:39:05 PM 41.3650 -95.5058 237° Southwest 248 285 9,300 -2,226 Descending Minneapolis Center
Fri 08:39:46 PM 41.3275 -95.5453 218° Southwest 282 325 8,100 -1,890 Descending Minneapolis Center
Fri 08:40:18 PM 41.3058 -95.5853 234° Southwest 238 274 7,000 -1,839 Descending Minneapolis Center
Fri 08:40:48 PM 41.2850 -95.6067 218° Southwest 253 291 6,200 -1,900 Descending Minneapolis Center
Fri 08:41:18 PM 41.2725 -95.6503 249° West 217 250 5,100 -1,839 Descending Minneapolis Center
Fri 08:41:50 PM 41.2556 -95.6764 229° Southwest 230 265 4,300 -1,475 Descending Minneapolis Center
Fri 08:42:19 PM 41.2436 -95.7175 249° West 205 236 3,600 -1,355 Descending Minneapolis Center
Fri 08:42:52 PM 41.2325 -95.7406 237° Southwest 209 241 2,900 -787 Descending Minneapolis Center
Fri 08:43:20 PM 41.2347 -95.7742 275° West 164 189 2,800 -290 Descending Minneapolis Center
Fri 08:43:54 PM 41.2392 -95.7975 284° West 178 205 2,600 -700 Descending Minneapolis Center
Fri 08:44:20 PM 41.2469 -95.8308 287° West 152 175 2,100 -677 Descending Minneapolis Center
Fri 08:44:56 PM 41.2542 -95.8481 299° West 160 184 1,900 -590 Descending Minneapolis Center
Fri 08:45:21 PM 41.2728 -95.8722 316° Northwest 130 150 1,500 -774 Descending Minneapolis Center
Fri 08:45:58 PM 41.2894 -95.8828 335° Northwest 139 160 1,100 -649 Descending Minneapolis Center
Fri 08:47:00 PM 41.3000 -95.8833 298° West  Level FlightAware Approximate
Fri 08:54:00 PM 41.3032 -95.8941 298° West  Level Estimated

Login

Don't have an account? Register now (free) for customized features, flight alerts, and more!